Terminal Aerodrome Forecast
Issued by NWS Milwaukee/Sullivan, WI

Home | Current Version | Previous Version | Text Only | Print | Product List | Glossary On
Versions: 1 2 3 4 5 6 7 8 9 10 11 12 13 14 15 16 17 18 19 20 21 22 23 24 25 26 27 28 29 30 31 32 33 34 35 36 37 38 39 40 41 42 43 44 45 46 47 48 49 50
000
FTUS43 KMKX 261238 AAA
TAFMKE
TAF AMD
KMKE 261238Z 2613/2718 20011G18KT P6SM BKN010
     FM261500 16012G20KT P6SM VCSH SCT025 BKN045
     FM261800 15012G20KT P6SM SHRA OVC035
     FM262200 17011KT P6SM VCTS BKN035CB
     FM270000 19010KT P6SM BKN040
     FM270300 22011KT P6SM SCT045
     FM271000 24008KT P6SM BKN040
     FM271700 27009KT P6SM BKN035=

USA.gov is the U.S. government's official web portal to all federal, state and local government web resources and services.